Time;durP1;ratioP1;P1;durP2;ratioP2;P2;SDS_P1;SDS_P2;PMS_P1;PMS_P2;Temp;Humidity;BMP_temperature;BMP_pressure;BME280_temperature;BME280_humidity;BME280_pressure;Samples;Min_cycle;Max_cycle;Signal;HPM_P1;HPM_P2
2023/07/05 00:01:46;;;;;;;19.20;15.38;;;24.50;47.50;;;;;;5040626;28;20030;-62
2023/07/05 00:04:12;;;;;;;17.83;15.52;;;24.50;47.50;;;;;;5046046;28;20067;-61
2023/07/05 00:06:38;;;;;;;18.45;15.63;;;24.50;47.60;;;;;;5039220;28;20021;-62
2023/07/05 00:09:03;;;;;;;18.30;15.75;;;24.50;47.60;;;;;;5045004;28;20044;-61
2023/07/05 00:11:29;;;;;;;18.90;14.93;;;24.50;47.70;;;;;;5040724;28;20051;-62
2023/07/05 00:13:55;;;;;;;18.20;14.57;;;24.50;47.70;;;;;;5048609;28;20025;-60
2023/07/05 00:16:22;;;;;;;18.50;14.23;;;24.50;47.80;;;;;;5040893;28;20029;-61
2023/07/05 00:18:48;;;;;;;18.60;13.70;;;24.40;47.80;;;;;;5046502;28;20048;-60
2023/07/05 00:21:14;;;;;;;17.45;14.20;;;24.50;47.90;;;;;;5043470;28;20089;-61
2023/07/05 00:23:45;;;;;;;15.75;13.98;;;24.40;47.90;;;;;;5045178;28;20071;-60
2023/07/05 00:26:10;;;;;;;17.13;14.18;;;24.50;48.10;;;;;;5041771;28;20025;-60
2023/07/05 00:28:36;;;;;;;16.65;13.35;;;24.40;48.10;;;;;;5045344;28;20037;-60
2023/07/05 00:31:04;;;;;;;16.05;13.32;;;24.40;48.10;;;;;;5021992;28;20453;-62
2023/07/05 00:33:31;;;;;;;16.70;13.80;;;24.40;48.10;;;;;;5044645;28;20100;-60
2023/07/05 00:35:57;;;;;;;16.58;13.27;;;24.40;48.10;;;;;;5027083;28;20028;-63
2023/07/05 00:38:24;;;;;;;17.15;13.88;;;24.40;48.20;;;;;;5026583;28;20032;-61
2023/07/05 00:40:51;;;;;;;17.42;13.43;;;24.40;48.30;;;;;;5044536;28;20025;-61
2023/07/05 00:43:18;;;;;;;15.55;12.35;;;24.40;48.40;;;;;;5022011;28;20028;-60
2023/07/05 00:46:14;;;;;;;15.88;12.23;;;24.40;48.40;;;;;;5025422;28;20355;-61
2023/07/05 00:48:59;;;;;;;14.52;11.73;;;24.40;48.50;;;;;;5020522;28;20132;-61
2023/07/05 00:51:33;;;;;;;14.77;11.82;;;24.40;48.50;;;;;;5022577;28;20048;-60
2023/07/05 00:54:02;;;;;;;14.60;11.77;;;24.40;48.60;;;;;;5036386;28;20034;-62
2023/07/05 00:56:34;;;;;;;13.27;10.73;;;24.40;48.60;;;;;;5026279;28;20056;-62
2023/07/05 00:59:02;;;;;;;12.65;10.30;;;24.40;48.70;;;;;;5041022;28;20025;-62
2023/07/05 01:01:28;;;;;;;13.95;10.82;;;24.40;48.80;;;;;;5042350;28;20025;-62
2023/07/05 01:03:58;;;;;;;13.00;10.07;;;24.40;48.80;;;;;;5045824;28;20381;-61
2023/07/05 01:06:26;;;;;;;12.43;10.60;;;24.30;48.80;;;;;;5022900;28;20029;-60
2023/07/05 01:08:53;;;;;;;13.35;10.50;;;24.40;48.90;;;;;;5022450;28;20055;-61
2023/07/05 01:11:38;;;;;;;14.07;11.13;;;24.30;49.60;;;;;;5039706;28;20096;-61
2023/07/05 01:14:30;;;;;;;11.93;10.25;;;24.30;49.00;;;;;;5041016;28;20387;-60
2023/07/05 01:17:33;;;;;;;13.70;10.82;;;24.30;49.00;;;;;;5036888;28;20046;-62
2023/07/05 01:20:17;;;;;;;11.65;9.73;;;24.30;49.10;;;;;;5007772;28;20049;-60
2023/07/05 01:22:49;;;;;;;11.32;9.70;;;24.30;49.10;;;;;;5040955;28;20167;-61
2023/07/05 01:25:55;;;;;;;10.90;8.60;;;24.30;49.20;;;;;;5026350;28;20420;-61
2023/07/05 01:28:30;;;;;;;;;;;24.30;49.30;;;;;;5040217;28;20037;-62
2023/07/05 01:31:15;;;;;;;;;;;24.30;49.30;;;;;;5025467;28;20273;-61
2023/07/05 01:33:41;;;;;;;;;;;24.30;49.30;;;;;;5042931;28;19924;-62
2023/07/05 01:36:11;;;;;;;9.57;8.43;;;24.30;49.30;;;;;;5041786;28;19947;-60
2023/07/05 01:38:37;;;;;;;11.15;8.57;;;24.30;49.40;;;;;;5042612;28;20032;-60
2023/07/05 01:41:06;;;;;;;9.73;8.23;;;24.30;49.50;;;;;;5022801;28;20033;-64
2023/07/05 01:43:36;;;;;;;10.25;8.23;;;24.20;49.50;;;;;;5039593;28;20037;-62
2023/07/05 01:46:21;;;;;;;9.68;8.20;;;24.30;50.20;;;;;;5042569;28;20553;-60
2023/07/05 01:49:02;;;;;;;11.50;9.00;;;24.20;49.60;;;;;;5039264;28;20045;-61
2023/07/05 01:51:41;;;;;;;9.05;8.00;;;24.30;49.70;;;;;;5041521;28;20044;-60
2023/07/05 01:54:27;;;;;;;10.25;7.80;;;24.30;49.80;;;;;;5023560;28;20472;-63
2023/07/05 01:57:05;;;;;;;9.98;7.93;;;24.30;49.70;;;;;;5038631;28;20033;-63
2023/07/05 01:59:46;;;;;;;9.23;7.18;;;24.30;49.80;;;;;;5025490;28;20405;-61
2023/07/05 02:02:14;;;;;;;9.25;7.32;;;24.20;49.80;;;;;;5023554;28;20040;-62
2023/07/05 02:04:43;;;;;;;9.10;7.78;;;24.20;49.70;;;;;;5043262;28;20408;-59
2023/07/05 02:07:11;;;;;;;9.43;7.90;;;24.30;49.80;;;;;;5024318;28;21556;-63
2023/07/05 02:09:39;;;;;;;10.65;7.95;;;24.20;49.80;;;;;;5045192;28;20168;-63
2023/07/05 02:12:08;;;;;;;9.73;7.18;;;24.20;49.80;;;;;;5027265;28;20443;-61
2023/07/05 02:14:34;;;;;;;9.30;7.47;;;24.20;49.90;;;;;;5045881;28;20032;-63
2023/07/05 02:17:00;;;;;;;8.85;6.78;;;24.30;50.00;;;;;;5043907;28;20033;-61
2023/07/05 02:19:26;;;;;;;8.75;7.10;;;24.30;50.10;;;;;;5021551;28;20062;-61
2023/07/05 02:21:52;;;;;;;8.25;6.60;;;24.20;50.00;;;;;;5023875;28;20029;-59
2023/07/05 02:24:20;;;;;;;9.73;7.07;;;24.20;50.00;;;;;;5028023;28;20017;-63
2023/07/05 02:26:46;;;;;;;7.65;6.40;;;24.20;50.10;;;;;;5044807;28;20094;-61
2023/07/05 02:29:13;;;;;;;8.98;6.72;;;24.30;50.20;;;;;;5035497;28;20155;-61
2023/07/05 02:31:40;;;;;;;7.40;6.07;;;24.20;50.10;;;;;;5047075;28;20094;-63
2023/07/05 02:34:06;;;;;;;6.57;5.70;;;24.20;50.20;;;;;;5027043;28;20494;-63
2023/07/05 02:36:34;;;;;;;7.88;6.25;;;24.20;50.20;;;;;;5026973;28;20302;-62
2023/07/05 02:39:00;;;;;;;7.53;5.97;;;24.20;50.20;;;;;;5028375;28;20320;-62
2023/07/05 02:41:25;;;;;;;7.47;5.93;;;24.20;50.30;;;;;;5046041;28;20105;-61
2023/07/05 02:43:52;;;;;;;6.32;5.60;;;24.20;50.30;;;;;;5026838;28;20112;-63
2023/07/05 02:46:18;;;;;;;6.65;5.28;;;24.20;50.30;;;;;;5027330;28;20049;-62
2023/07/05 02:48:45;;;;;;;6.22;5.05;;;24.20;50.30;;;;;;5023914;28;20428;-61
2023/07/05 02:51:11;;;;;;;6.10;4.72;;;24.20;50.40;;;;;;5028722;28;20038;-62
2023/07/05 02:53:37;;;;;;;6.05;4.90;;;24.20;50.40;;;;;;5044535;28;20037;-63
2023/07/05 02:56:03;;;;;;;5.13;4.43;;;24.20;50.40;;;;;;5024375;28;20649;-61
2023/07/05 02:58:30;;;;;;;6.45;4.95;;;24.20;50.40;;;;;;5045652;28;20096;-62
2023/07/05 03:00:56;;;;;;;7.28;5.35;;;24.20;50.40;;;;;;5043513;28;20067;-61
2023/07/05 03:03:22;;;;;;;5.93;4.45;;;24.20;50.40;;;;;;5047040;28;20041;-61
2023/07/05 03:05:59;;;;;;;5.45;4.55;;;24.20;50.30;;;;;;5014001;28;20139;-62
2023/07/05 03:08:26;;;;;;;5.40;4.57;;;24.20;50.20;;;;;;5025854;28;20092;-64
2023/07/05 03:10:53;;;;;;;5.40;4.47;;;24.20;50.10;;;;;;5025806;28;20077;-61
2023/07/05 03:13:27;;;;;;;5.65;4.20;;;24.20;50.00;;;;;;5048854;28;20429;-62
2023/07/05 03:15:54;;;;;;;5.22;4.07;;;24.20;49.90;;;;;;5040543;28;20044;-61
2023/07/05 03:18:20;;;;;;;5.43;4.13;;;24.20;49.80;;;;;;5024839;28;20336;-62
2023/07/05 03:20:47;;;;;;;4.60;4.07;;;24.20;49.70;;;;;;5025287;28;20108;-61
2023/07/05 03:23:17;;;;;;;4.20;3.80;;;24.20;49.60;;;;;;5024463;28;20055;-63
2023/07/05 03:26:02;;;;;;;4.45;3.45;;;24.20;49.30;;;;;;5027354;28;20021;-61
2023/07/05 03:28:30;;;;;;;4.95;3.90;;;24.20;49.00;;;;;;5024904;28;20064;-61
2023/07/05 03:31:02;;;;;;;4.95;3.63;;;24.20;48.90;;;;;;5044711;28;20124;-61
2023/07/05 03:33:30;;;;;;;5.43;4.00;;;24.20;48.70;;;;;;5022572;28;20066;-61
2023/07/05 03:36:13;;;;;;;4.00;3.15;;;24.20;48.50;;;;;;5045541;28;20033;-61
2023/07/05 03:38:39;;;;;;;4.28;3.65;;;24.20;48.40;;;;;;5043677;28;20318;-63
2023/07/05 03:41:17;;;;;;;4.20;3.50;;;24.20;48.20;;;;;;5021265;28;20169;-59
2023/07/05 03:43:45;;;;;;;4.63;3.38;;;24.10;47.90;;;;;;5026741;28;20598;-61
2023/07/05 03:46:13;;;;;;;4.85;3.55;;;24.10;47.90;;;;;;5042932;28;20044;-60
2023/07/05 03:48:41;;;;;;;4.40;3.30;;;24.10;47.80;;;;;;5040995;28;20064;-60
2023/07/05 03:51:10;;;;;;;3.70;2.70;;;24.10;47.70;;;;;;5037148;28;20112;-62
2023/07/05 03:53:36;;;;;;;4.00;3.05;;;24.10;47.60;;;;;;5041649;28;20128;-63
2023/07/05 03:56:05;;;;;;;4.38;3.17;;;24.10;47.50;;;;;;5042856;28;20036;-60
2023/07/05 03:58:31;;;;;;;4.18;3.67;;;24.10;47.40;;;;;;5042186;28;20442;-60
2023/07/05 04:01:07;;;;;;;3.60;2.97;;;24.10;47.30;;;;;;5041433;28;20068;-61
2023/07/05 04:03:33;;;;;;;5.22;3.53;;;24.10;47.10;;;;;;5043913;28;20039;-62
2023/07/05 04:06:03;;;;;;;3.58;2.85;;;24.10;47.10;;;;;;5021966;28;20037;-62
2023/07/05 04:08:29;;;;;;;3.60;3.08;;;24.10;47.00;;;;;;5042336;28;20119;-61
2023/07/05 04:10:55;;;;;;;5.18;2.95;;;24.10;47.00;;;;;;5035180;28;20428;-60
2023/07/05 04:13:21;;;;;;;4.43;3.00;;;24.10;46.90;;;;;;5041880;28;20104;-62
2023/07/05 04:15:56;;;;;;;3.88;3.10;;;24.10;46.80;;;;;;5043876;28;20132;-60
2023/07/05 04:18:22;;;;;;;3.35;2.85;;;24.10;46.80;;;;;;5039171;28;20144;-62
2023/07/05 04:20:48;;;;;;;5.97;3.38;;;24.10;46.80;;;;;;5040638;28;20140;-61
2023/07/05 04:23:13;;;;;;;4.05;3.03;;;24.10;46.70;;;;;;5041359;28;20025;-61
2023/07/05 04:25:39;;;;;;;3.80;3.10;;;24.00;46.60;;;;;;5043739;28;20086;-60
2023/07/05 04:28:05;;;;;;;3.80;3.13;;;24.10;46.60;;;;;;5023867;28;20024;-61
2023/07/05 04:30:31;;;;;;;4.82;3.10;;;24.10;46.60;;;;;;5040230;28;20047;-62
2023/07/05 04:32:57;;;;;;;3.13;2.60;;;24.10;46.40;;;;;;5040388;28;20407;-62
2023/07/05 04:35:23;;;;;;;3.65;2.60;;;24.10;46.40;;;;;;5040464;28;20033;-62
2023/07/05 04:37:49;;;;;;;3.78;2.63;;;24.10;46.30;;;;;;5039494;28;20028;-63
2023/07/05 04:40:15;;;;;;;3.58;2.70;;;24.10;46.20;;;;;;5042991;28;20029;-60
2023/07/05 04:42:41;;;;;;;3.20;2.47;;;24.10;46.10;;;;;;5039611;28;20033;-61
2023/07/05 04:45:08;;;;;;;3.75;2.78;;;24.10;46.10;;;;;;5041587;28;20049;-62
2023/07/05 04:47:34;;;;;;;3.58;2.92;;;24.10;46.00;;;;;;5036766;28;20059;-63
2023/07/05 04:50:00;;;;;;;3.40;2.90;;;24.10;45.90;;;;;;5042899;28;20032;-60
2023/07/05 04:52:27;;;;;;;3.45;2.53;;;24.10;45.90;;;;;;5038505;28;20052;-60
2023/07/05 04:54:54;;;;;;;3.90;2.78;;;24.10;45.80;;;;;;5043369;28;20049;-60
2023/07/05 04:57:20;;;;;;;2.72;2.38;;;24.10;45.70;;;;;;5043492;28;20116;-61
2023/07/05 04:59:45;;;;;;;4.78;2.58;;;24.10;45.70;;;;;;5036107;28;20142;-62
2023/07/05 05:02:12;;;;;;;3.60;2.63;;;24.10;45.60;;;;;;5038158;28;20049;-62
2023/07/05 05:04:38;;;;;;;4.25;2.90;;;24.10;45.60;;;;;;5038318;28;21157;-60
2023/07/05 05:07:05;;;;;;;3.05;2.40;;;24.10;45.60;;;;;;5040774;28;20098;-61
2023/07/05 05:09:31;;;;;;;3.03;2.45;;;24.10;45.50;;;;;;5038416;28;20051;-60
2023/07/05 05:11:57;;;;;;;2.97;2.67;;;24.10;45.60;;;;;;5037637;28;20021;-61
2023/07/05 05:14:23;;;;;;;3.85;2.88;;;24.10;45.50;;;;;;5041095;28;20452;-61
2023/07/05 05:16:49;;;;;;;3.90;2.55;;;24.10;45.50;;;;;;5039662;28;20421;-62
2023/07/05 05:19:15;;;;;;;3.15;2.50;;;24.10;45.50;;;;;;5040959;28;20039;-61
2023/07/05 05:21:40;;;;;;;4.35;2.58;;;24.10;45.40;;;;;;5039398;28;20048;-61
2023/07/05 05:24:06;;;;;;;2.58;2.22;;;24.10;45.40;;;;;;5038264;28;20025;-60
2023/07/05 05:26:32;;;;;;;3.17;2.50;;;24.10;45.30;;;;;;5039871;28;20106;-63
2023/07/05 05:28:58;;;;;;;2.95;2.40;;;24.10;45.30;;;;;;5038821;28;20044;-61
2023/07/05 05:31:24;;;;;;;2.22;2.00;;;24.10;45.20;;;;;;5037803;28;20032;-59
2023/07/05 05:33:50;;;;;;;3.55;2.50;;;24.10;45.20;;;;;;5040399;28;20047;-62
2023/07/05 05:36:15;;;;;;;4.10;2.50;;;24.10;45.20;;;;;;5038129;28;20095;-60
2023/07/05 05:38:41;;;;;;;2.72;2.25;;;24.10;45.10;;;;;;5040756;28;20098;-62
2023/07/05 05:41:10;;;;;;;3.65;2.58;;;24.10;45.00;;;;;;5038173;28;20028;-61
2023/07/05 05:43:39;;;;;;;3.55;2.42;;;24.10;45.00;;;;;;5037032;28;20128;-62
2023/07/05 05:46:07;;;;;;;3.45;2.60;;;24.10;45.00;;;;;;5038629;28;20198;-61
2023/07/05 05:48:33;;;;;;;3.03;2.22;;;24.10;44.90;;;;;;5039047;28;20124;-60
2023/07/05 05:50:59;;;;;;;3.65;2.63;;;24.10;44.90;;;;;;5038862;28;20024;-63
2023/07/05 05:53:25;;;;;;;3.25;2.20;;;24.10;44.80;;;;;;5021122;28;20345;-60
2023/07/05 05:55:51;;;;;;;2.70;2.20;;;24.10;44.90;;;;;;5039253;28;20135;-63
2023/07/05 05:58:17;;;;;;;3.00;2.47;;;24.10;44.80;;;;;;5006467;28;20048;-61
2023/07/05 06:00:42;;;;;;;2.88;2.10;;;24.10;44.80;;;;;;5036648;28;20120;-61
2023/07/05 06:03:08;;;;;;;3.58;2.42;;;24.10;44.70;;;;;;5037184;28;20089;-60
2023/07/05 06:05:35;;;;;;;3.60;2.55;;;24.20;44.70;;;;;;5043303;28;20108;-61
2023/07/05 06:08:01;;;;;;;3.63;2.50;;;24.10;44.60;;;;;;5043454;28;20662;-62
2023/07/05 06:10:27;;;;;;;3.63;2.10;;;24.20;44.60;;;;;;5027712;28;20163;-62
2023/07/05 06:12:52;;;;;;;2.67;2.08;;;24.10;44.50;;;;;;5044864;28;20052;-61
2023/07/05 06:15:18;;;;;;;2.67;2.05;;;24.20;44.50;;;;;;5042774;28;20439;-63
2023/07/05 06:17:44;;;;;;;2.63;2.10;;;24.20;44.50;;;;;;5045837;28;20029;-60
2023/07/05 06:20:10;;;;;;;2.25;1.88;;;24.10;44.40;;;;;;5041083;28;20020;-60
2023/07/05 06:22:37;;;;;;;3.15;2.42;;;24.20;44.40;;;;;;5042905;28;20032;-61
2023/07/05 06:25:03;;;;;;;3.17;2.00;;;24.20;44.40;;;;;;5041218;28;20416;-62
2023/07/05 06:27:29;;;;;;;2.85;1.83;;;24.10;44.30;;;;;;5040130;28;20025;-62
2023/07/05 06:29:55;;;;;;;4.72;2.30;;;24.10;44.30;;;;;;5045859;28;20060;-59
2023/07/05 06:32:22;;;;;;;3.63;2.20;;;24.20;44.30;;;;;;5043505;28;20052;-61
2023/07/05 06:34:48;;;;;;;4.95;2.78;;;24.20;44.20;;;;;;5036462;28;20067;-60
2023/07/05 06:37:16;;;;;;;6.22;2.90;;;24.20;44.30;;;;;;5036016;28;20029;-62
2023/07/05 06:39:41;;;;;;;4.55;2.47;;;24.20;44.20;;;;;;5040049;28;20100;-60
2023/07/05 06:42:08;;;;;;;4.53;2.60;;;24.20;44.20;;;;;;5038696;28;20396;-61
2023/07/05 06:44:35;;;;;;;8.05;2.65;;;24.20;44.20;;;;;;5018093;28;20463;-61
2023/07/05 06:47:01;;;;;;;4.82;2.85;;;24.20;44.20;;;;;;5041198;28;20033;-61
2023/07/05 06:49:26;;;;;;;5.22;2.90;;;24.10;44.10;;;;;;5040720;28;20454;-63
2023/07/05 06:51:53;;;;;;;5.45;2.80;;;24.20;44.20;;;;;;5041558;28;20104;-64
2023/07/05 06:54:20;;;;;;;6.30;3.00;;;24.10;44.10;;;;;;5038038;28;20489;-62
2023/07/05 06:56:46;;;;;;;4.10;2.67;;;24.10;44.20;;;;;;5017616;28;20044;-61
2023/07/05 06:59:12;;;;;;;5.05;2.42;;;24.20;44.20;;;;;;5005874;28;20127;-62
2023/07/05 07:01:38;;;;;;;5.25;2.63;;;24.10;44.20;;;;;;5036696;28;20028;-61
2023/07/05 07:04:07;;;;;;;5.53;2.30;;;24.20;44.30;;;;;;5041870;28;20049;-64
2023/07/05 07:06:36;;;;;;;5.38;2.55;;;24.20;44.30;;;;;;5039677;28;20119;-62
2023/07/05 07:09:04;;;;;;;6.65;2.90;;;24.10;44.20;;;;;;5040145;28;20573;-60
2023/07/05 07:11:30;;;;;;;6.80;3.00;;;24.10;44.20;;;;;;5025418;28;20045;-63
2023/07/05 07:13:56;;;;;;;5.85;2.67;;;24.10;44.20;;;;;;5048173;28;20043;-62
2023/07/05 07:16:22;;;;;;;4.68;2.60;;;24.20;44.20;;;;;;5043788;28;20320;-62
2023/07/05 07:18:50;;;;;;;5.55;2.65;;;24.10;44.20;;;;;;5045235;28;20412;-61
2023/07/05 07:21:18;;;;;;;5.40;2.60;;;24.20;44.20;;;;;;5043153;28;20067;-62
2023/07/05 07:23:48;;;;;;;5.03;2.30;;;24.10;44.10;;;;;;5041139;28;20112;-61
2023/07/05 07:26:16;;;;;;;5.22;2.47;;;24.10;44.00;;;;;;5018395;28;20040;-63
2023/07/05 07:28:49;;;;;;;5.60;2.42;;;24.10;44.00;;;;;;5041259;28;20053;-60
2023/07/05 07:31:19;;;;;;;5.85;2.67;;;24.10;44.00;;;;;;5040191;28;21645;-63
2023/07/05 07:33:46;;;;;;;4.88;2.47;;;24.10;44.00;;;;;;5038430;28;20364;-61
2023/07/05 07:36:16;;;;;;;3.33;1.90;;;24.10;43.90;;;;;;5041800;28;20055;-59
2023/07/05 07:38:42;;;;;;;6.00;2.45;;;24.20;43.90;;;;;;5045021;28;21770;-61
2023/07/05 07:41:29;;;;;;;4.50;2.78;;;24.20;43.90;;;;;;5037558;28;20055;-62
2023/07/05 07:43:58;;;;;;;5.30;2.42;;;24.20;43.90;;;;;;5038144;28;20111;-64
2023/07/05 07:46:26;;;;;;;3.67;2.05;;;24.20;43.90;;;;;;5020482;28;20060;-61
2023/07/05 07:48:55;;;;;;;4.78;2.22;;;24.20;43.90;;;;;;5017906;28;20144;-61
2023/07/05 07:51:23;;;;;;;4.25;2.10;;;24.20;43.90;;;;;;5036653;28;20028;-63
2023/07/05 07:53:52;;;;;;;3.53;1.80;;;24.20;43.90;;;;;;5041787;28;20093;-61
2023/07/05 07:56:21;;;;;;;3.35;1.80;;;24.20;43.90;;;;;;5043901;28;20033;-61
2023/07/05 07:58:49;;;;;;;5.10;1.77;;;24.20;43.90;;;;;;5039910;28;20068;-62
2023/07/05 08:01:23;;;;;;;4.32;2.00;;;24.20;43.90;;;;;;5042828;28;20032;-63
2023/07/05 08:03:49;;;;;;;3.95;1.90;;;24.20;44.00;;;;;;5042311;28;20441;-63
2023/07/05 08:06:16;;;;;;;3.25;1.50;;;24.20;44.00;;;;;;5021395;28;20078;-63
2023/07/05 08:08:42;;;;;;;3.63;1.90;;;24.20;44.00;;;;;;5040750;28;20468;-61
2023/07/05 08:11:09;;;;;;;3.55;1.75;;;24.20;44.10;;;;;;5036158;28;20060;-63
2023/07/05 08:13:36;;;;;;;2.65;1.80;;;24.20;44.10;;;;;;5036655;28;20033;-61
2023/07/05 08:16:03;;;;;;;2.35;1.80;;;24.20;44.10;;;;;;5037076;28;20048;-61
2023/07/05 08:18:29;;;;;;;2.22;1.60;;;24.20;44.20;;;;;;5045368;28;20089;-63
2023/07/05 08:20:56;;;;;;;3.47;1.70;;;24.20;44.30;;;;;;5044974;28;20033;-63
2023/07/05 08:23:22;;;;;;;3.50;1.77;;;24.20;44.30;;;;;;5040664;28;20041;-62
2023/07/05 08:25:55;;;;;;;3.42;1.90;;;24.20;44.50;;;;;;5038433;28;20025;-62
2023/07/05 08:28:27;;;;;;;4.72;1.92;;;24.20;44.50;;;;;;5037642;28;20041;-61
2023/07/05 08:30:58;;;;;;;4.07;1.60;;;24.20;44.60;;;;;;5039139;28;20028;-61
2023/07/05 08:33:28;;;;;;;4.45;2.30;;;24.20;44.60;;;;;;5036269;28;20044;-63
2023/07/05 08:36:13;;;;;;;3.45;2.10;;;24.20;44.70;;;;;;5040087;28;20048;-67
2023/07/05 08:38:45;;;;;;;3.63;2.08;;;24.20;44.70;;;;;;5043291;28;20033;-64
2023/07/05 08:41:35;;;;;;;3.30;2.00;;;24.30;44.70;;;;;;5040249;28;20130;-65
2023/07/05 08:44:20;;;;;;;4.75;1.77;;;24.30;44.70;;;;;;5038229;28;21406;-63
2023/07/05 08:47:00;;;;;;;4.07;1.98;;;24.30;44.70;;;;;;5037364;28;20036;-61
2023/07/05 08:49:33;;;;;;;3.30;1.60;;;24.30;44.70;;;;;;5020327;28;20093;-62
2023/07/05 08:52:01;;;;;;;5.45;1.60;;;24.30;44.60;;;;;;5042837;28;20044;-62
2023/07/05 08:54:32;;;;;;;1.88;1.33;;;24.40;44.70;;;;;;5043543;28;20069;-60
2023/07/05 08:57:05;;;;;;;2.40;1.50;;;24.40;44.60;;;;;;5045101;28;20047;-63
2023/07/05 08:59:42;;;;;;;2.67;1.45;;;24.40;44.60;;;;;;5042255;28;20104;-62
2023/07/05 09:02:11;;;;;;;2.83;1.20;;;24.40;44.60;;;;;;5044308;28;20051;-62
2023/07/05 09:04:36;;;;;;;2.13;1.52;;;24.40;44.60;;;;;;5044224;28;20105;-63
2023/07/05 09:07:20;;;;;;;1.75;1.25;;;24.40;44.60;;;;;;5043777;28;20437;-61
2023/07/05 09:10:07;;;;;;;2.30;1.30;;;24.40;44.60;;;;;;5040377;28;20055;-60
2023/07/05 09:12:48;;;;;;;2.30;1.17;;;24.40;44.60;;;;;;5042426;28;20357;-61
2023/07/05 09:15:22;;;;;;;2.70;1.55;;;24.40;44.60;;;;;;5039263;28;20104;-61
2023/07/05 09:18:20;;;;;;;;;;;24.40;44.60;;;;;;5036137;28;20029;-60
2023/07/05 09:20:55;;;;;;;1.58;1.10;;;24.30;44.50;;;;;;5002525;28;20051;-61
2023/07/05 09:23:38;;;;;;;1.73;1.10;;;24.30;44.80;;;;;;5039837;28;20039;-61
2023/07/05 09:26:17;;;;;;;1.95;1.20;;;24.40;45.20;;;;;;5033482;28;20141;-64
2023/07/05 09:28:50;;;;;;;4.10;1.50;;;24.40;45.40;;;;;;5037463;28;20414;-61
2023/07/05 09:31:16;;;;;;;1.50;1.00;;;24.40;45.40;;;;;;5033999;28;20041;-64
2023/07/05 09:33:49;;;;;;;3.10;1.63;;;24.40;45.50;;;;;;5035586;28;20029;-60
2023/07/05 09:36:22;;;;;;;3.75;1.70;;;24.40;45.60;;;;;;5036035;28;20061;-61
2023/07/05 09:38:55;;;;;;;2.55;1.55;;;24.50;45.60;;;;;;5039397;28;20032;-62
2023/07/05 09:41:42;;;;;;;3.58;1.25;;;24.50;45.60;;;;;;5038650;28;20037;-60
2023/07/05 09:44:07;;;;;;;3.33;1.23;;;24.50;45.50;;;;;;5035731;28;20037;-60
2023/07/05 09:46:36;;;;;;;2.00;1.20;;;24.50;45.40;;;;;;5035331;28;20098;-62
2023/07/05 09:49:10;;;;;;;3.47;1.40;;;24.50;45.30;;;;;;5036445;28;20106;-61
2023/07/05 09:51:38;;;;;;;2.25;1.30;;;24.60;45.30;;;;;;5035169;28;20086;-62
2023/07/05 09:54:09;;;;;;;2.25;1.27;;;24.60;45.20;;;;;;5037648;28;21452;-61
2023/07/05 09:57:09;;;;;;;2.22;1.30;;;24.60;45.10;;;;;;5011061;28;20048;-63
2023/07/05 09:59:36;;;;;;;2.40;1.48;;;24.60;45.00;;;;;;5037755;28;20535;-62
2023/07/05 10:02:14;;;;;;;2.08;1.20;;;24.60;44.90;;;;;;5040906;28;20393;-62
2023/07/05 10:04:48;;;;;;;3.22;1.00;;;24.60;44.90;;;;;;5033096;28;20182;-62
2023/07/05 10:07:20;;;;;;;2.40;1.17;;;24.70;44.90;;;;;;5035620;28;21293;-63
2023/07/05 10:10:08;;;;;;;3.85;1.30;;;24.60;44.70;;;;;;5037460;28;20044;-60
2023/07/05 10:12:37;;;;;;;1.52;1.10;;;24.70;44.60;;;;;;5040805;28;20082;-63
2023/07/05 10:15:21;;;;;;;1.70;1.08;;;24.70;44.60;;;;;;5039025;28;20418;-61
2023/07/05 10:17:49;;;;;;;1.52;0.90;;;24.70;45.10;;;;;;5037420;28;20092;-64
2023/07/05 10:20:47;;;;;;;1.70;0.90;;;24.70;44.40;;;;;;5041507;28;20124;-62
2023/07/05 10:23:22;;;;;;;1.50;1.10;;;24.70;44.30;;;;;;5036311;28;20340;-62
2023/07/05 10:25:49;;;;;;;2.17;1.10;;;24.70;44.30;;;;;;5035098;28;20040;-60
2023/07/05 10:28:18;;;;;;;2.03;1.10;;;24.70;44.20;;;;;;5037801;28;20126;-60
2023/07/05 10:30:59;;;;;;;2.20;1.05;;;24.70;44.20;;;;;;5040901;28;20878;-60
2023/07/05 10:33:30;;;;;;;2.30;1.30;;;24.70;44.10;;;;;;5038453;28;20036;-62
2023/07/05 10:36:13;;;;;;;1.63;0.85;;;24.70;44.10;;;;;;5023250;28;20033;-61
2023/07/05 10:38:40;;;;;;;3.22;1.30;;;24.70;44.00;;;;;;5041424;28;20336;-61
2023/07/05 10:41:25;;;;;;;2.75;1.23;;;24.60;44.00;;;;;;5039833;28;21633;-63
2023/07/05 10:44:01;;;;;;;2.25;1.00;;;24.60;44.00;;;;;;5036248;28;20029;-62
2023/07/05 10:46:28;;;;;;;3.17;1.20;;;24.60;44.10;;;;;;5034764;28;20447;-61
2023/07/05 10:48:55;;;;;;;2.30;0.88;;;24.60;44.10;;;;;;5018025;28;20037;-63
2023/07/05 10:51:25;;;;;;;1.92;1.10;;;24.60;44.20;;;;;;5039986;28;20065;-61
2023/07/05 10:54:16;;;;;;;2.10;1.00;;;24.50;44.20;;;;;;5046071;28;20063;-61
2023/07/05 10:56:44;;;;;;;3.42;1.30;;;24.50;44.20;;;;;;5042880;28;20137;-60
2023/07/05 10:59:25;;;;;;;1.95;1.10;;;24.50;44.30;;;;;;5036298;28;20045;-62
2023/07/05 11:02:02;;;;;;;1.48;1.00;;;24.50;44.30;;;;;;5039361;28;20045;-60
2023/07/05 11:04:31;;;;;;;3.10;1.27;;;24.40;44.30;;;;;;5043780;28;20033;-60
2023/07/05 11:07:10;;;;;;;2.50;1.35;;;24.40;44.40;;;;;;5044393;28;20040;-61
2023/07/05 11:09:40;;;;;;;2.53;1.33;;;24.40;44.40;;;;;;5040860;28;20049;-62
2023/07/05 11:12:15;;;;;;;2.85;1.00;;;24.40;44.40;;;;;;5041370;28;20091;-60
2023/07/05 11:14:42;;;;;;;1.73;0.90;;;24.40;44.50;;;;;;5043248;28;20056;-62
2023/07/05 11:17:20;;;;;;;2.58;1.13;;;24.40;44.50;;;;;;5040925;28;20044;-61
2023/07/05 11:19:46;;;;;;;1.95;1.00;;;24.40;44.50;;;;;;5040003;28;20342;-62
2023/07/05 11:22:37;;;;;;;2.17;1.00;;;24.40;44.50;;;;;;5045618;28;20025;-61
2023/07/05 11:25:04;;;;;;;2.17;0.85;;;24.40;44.60;;;;;;5019192;28;20060;-63
2023/07/05 11:27:30;;;;;;;4.53;0.85;;;24.40;44.60;;;;;;5038612;28;20188;-61
2023/07/05 11:29:58;;;;;;;1.80;0.90;;;24.40;44.70;;;;;;5042721;28;20132;-62
2023/07/05 11:33:16;;;;;;;1.15;0.90;;;24.40;44.70;;;;;;5023997;28;20415;-61
2023/07/05 11:35:51;;;;;;;2.53;0.82;;;24.40;44.60;;;;;;5018335;28;20092;-63
2023/07/05 11:38:36;;;;;;;0.70;0.60;;;24.40;44.50;;;;;;5039554;28;20037;-64
2023/07/05 11:41:09;;;;;;;3.35;0.82;;;24.40;44.50;;;;;;5020668;28;20037;-60
2023/07/05 11:43:41;;;;;;;3.67;0.90;;;24.40;44.60;;;;;;5021336;28;20033;-62
2023/07/05 11:46:45;;;;;;;4.53;0.82;;;24.40;44.60;;;;;;5044696;28;20063;-63
2023/07/05 11:49:20;;;;;;;1.63;0.97;;;24.40;44.60;;;;;;5046673;28;20059;-61
2023/07/05 11:52:04;;;;;;;1.83;0.95;;;24.40;44.60;;;;;;5051660;28;20061;-65
2023/07/05 11:54:48;;;;;;;3.88;1.00;;;24.50;44.70;;;;;;5050085;28;20433;-62
2023/07/05 11:57:15;;;;;;;2.90;1.10;;;24.50;44.70;;;;;;5034096;28;20068;-61
2023/07/05 12:00:00;;;;;;;1.40;0.80;;;24.50;44.70;;;;;;5033345;28;20479;-61
2023/07/05 12:02:59;;;;;;;1.55;0.80;;;24.50;44.60;;;;;;5050593;28;20365;-64
2023/07/05 12:05:32;;;;;;;2.55;1.13;;;24.50;44.40;;;;;;5012188;28;20051;-64
2023/07/05 12:08:03;;;;;;;2.10;1.20;;;24.60;44.50;;;;;;5034369;28;20121;-67
2023/07/05 12:10:33;;;;;;;2.03;0.90;;;24.50;44.60;;;;;;5036042;28;20480;-63
2023/07/05 12:12:59;;;;;;;1.92;0.90;;;24.60;44.70;;;;;;5051773;28;20055;-62
2023/07/05 12:15:27;;;;;;;1.50;0.80;;;24.60;44.70;;;;;;5051550;28;20341;-64
2023/07/05 12:17:53;;;;;;;1.33;0.90;;;24.60;44.70;;;;;;5033191;28;20037;-62
2023/07/05 12:20:30;;;;;;;1.88;0.90;;;24.60;44.70;;;;;;5018882;28;20105;-64
2023/07/05 12:22:58;;;;;;;2.35;1.00;;;24.60;44.60;;;;;;5040154;28;20067;-62
2023/07/05 12:25:25;;;;;;;1.00;0.90;;;24.70;44.80;;;;;;5051601;28;20433;-61
2023/07/05 12:27:52;;;;;;;1.00;0.70;;;24.70;44.70;;;;;;5032757;28;20095;-61
2023/07/05 12:30:23;;;;;;;1.75;0.70;;;24.70;44.80;;;;;;5051291;28;20056;-61
2023/07/05 12:32:56;;;;;;;2.13;1.10;;;24.70;44.80;;;;;;5044635;28;20147;-63
2023/07/05 12:35:27;;;;;;;1.95;0.95;;;24.70;44.80;;;;;;5045911;28;20358;-62
2023/07/05 12:37:56;;;;;;;3.45;1.02;;;24.70;44.70;;;;;;5046642;28;20025;-60
2023/07/05 12:40:27;;;;;;;1.35;0.73;;;24.70;44.70;;;;;;5041093;28;20041;-63
2023/07/05 12:43:04;;;;;;;3.25;0.80;;;24.70;44.70;;;;;;5015551;28;20060;-63
2023/07/05 12:45:36;;;;;;;2.05;0.90;;;24.80;44.70;;;;;;5028475;28;20321;-60
2023/07/05 12:48:14;;;;;;;1.30;0.85;;;24.80;44.60;;;;;;5050200;28;20369;-61
2023/07/05 12:50:41;;;;;;;0.93;0.60;;;24.80;44.60;;;;;;5050626;28;20354;-62
2023/07/05 12:53:18;;;;;;;3.10;0.73;;;24.80;44.60;;;;;;5049252;28;20033;-62
2023/07/05 12:56:03;;;;;;;1.50;0.70;;;24.90;44.60;;;;;;5032491;28;20449;-64
2023/07/05 12:58:30;;;;;;;2.05;0.80;;;24.90;44.50;;;;;;5020113;28;20100;-63
2023/07/05 13:01:00;;;;;;;2.05;0.80;;;24.90;44.50;;;;;;5018488;28;20024;-62
2023/07/05 13:03:29;;;;;;;2.00;0.80;;;25.00;44.40;;;;;;5038585;28;20128;-63
2023/07/05 13:05:55;;;;;;;2.67;0.93;;;24.90;44.30;;;;;;5031920;28;20025;-62